Time;durP1;ratioP1;P1;durP2;ratioP2;P2;SDS_P1;SDS_P2;PMS_P1;PMS_P2;Temp;Humidity;BMP_temperature;BMP_pressure;BME280_temperature;BME280_humidity;BME280_pressure;Samples;Min_cycle;Max_cycle;Signal;HPM_P1;HPM_P2
2021/08/11 00:00:50;;;;;;;11.98;7.97;;;;;;;12.63;100.00;100725.44;4961253;28;20023;-82
2021/08/11 00:03:16;;;;;;;15.77;8.10;;;;;;;12.62;100.00;100724.59;4962420;28;20036;-82
2021/08/11 00:05:41;;;;;;;12.48;7.85;;;;;;;12.56;100.00;100722.16;4961777;28;20034;-82
2021/08/11 00:08:06;;;;;;;10.88;7.75;;;;;;;12.57;100.00;100721.25;4961367;29;20143;-82
2021/08/11 00:10:32;;;;;;;11.13;7.75;;;;;;;12.54;100.00;100726.53;4960887;28;20522;-81
2021/08/11 00:12:57;;;;;;;12.35;7.90;;;;;;;12.51;100.00;100724.00;4961837;29;20027;-81
2021/08/11 00:15:22;;;;;;;12.25;7.72;;;;;;;12.52;100.00;100730.03;4960532;29;20499;-81
2021/08/11 00:17:48;;;;;;;13.73;8.18;;;;;;;12.48;100.00;100725.81;4960894;29;20027;-81
2021/08/11 00:20:13;;;;;;;13.52;8.13;;;;;;;12.46;100.00;100727.59;4960157;28;20050;-81
2021/08/11 00:22:38;;;;;;;13.07;7.82;;;;;;;12.47;100.00;100718.88;4959984;29;20031;-81
2021/08/11 00:25:04;;;;;;;12.00;7.88;;;;;;;12.48;100.00;100720.59;4960315;29;20090;-81
2021/08/11 00:27:30;;;;;;;14.27;8.02;;;;;;;12.46;100.00;100722.38;4960758;28;20027;-81
2021/08/11 00:29:55;;;;;;;12.40;7.32;;;;;;;12.44;100.00;100725.03;4961481;28;20035;-81
2021/08/11 00:32:20;;;;;;;13.48;7.50;;;;;;;12.43;100.00;100724.16;4961914;28;20023;-81
2021/08/11 00:34:45;;;;;;;10.82;7.22;;;;;;;12.40;100.00;100729.41;4962884;29;20480;-81
2021/08/11 00:37:11;;;;;;;13.80;7.65;;;;;;;12.46;100.00;100725.84;4958431;28;20503;-81
2021/08/11 00:39:36;;;;;;;13.57;8.30;;;;;;;12.43;100.00;100728.50;4957202;28;20039;-81
2021/08/11 00:42:03;;;;;;;12.60;8.05;;;;;;;12.39;100.00;100724.28;4959002;28;20034;-81
2021/08/11 00:44:28;;;;;;;13.25;8.00;;;;;;;12.40;100.00;100726.81;4958486;28;20023;-81
2021/08/11 00:46:54;;;;;;;12.40;7.57;;;;;;;12.40;100.00;100720.78;4958628;28;20062;-81
2021/08/11 00:49:19;;;;;;;12.00;7.47;;;;;;;12.39;100.00;100722.53;4957854;28;20407;-81
2021/08/11 00:51:46;;;;;;;12.15;8.25;;;;;;;12.35;100.00;100720.03;4958010;29;20025;-81
2021/08/11 00:54:13;;;;;;;13.15;7.93;;;;;;;12.28;100.00;100721.91;4958417;28;20027;-81
2021/08/11 00:56:43;;;;;;;14.13;8.20;;;;;;;12.37;100.00;100723.44;4960361;28;20069;-81
2021/08/11 00:59:10;;;;;;;10.70;7.45;;;;;;;12.30;100.00;100719.28;4957744;28;20542;-81
2021/08/11 01:01:38;;;;;;;11.55;7.07;;;;;;;12.33;100.00;100721.81;4959481;28;20110;-81
2021/08/11 01:04:07;;;;;;;13.00;7.55;;;;;;;12.29;100.00;100720.19;4957500;29;20027;-81
2021/08/11 01:06:35;;;;;;;11.40;7.47;;;;;;;12.30;100.00;100717.53;4958577;29;20119;-81
2021/08/11 01:09:01;;;;;;;12.38;8.05;;;;;;;12.33;100.00;100729.63;4959175;28;20070;-81
2021/08/11 01:11:26;;;;;;;12.82;8.18;;;;;;;12.31;100.00;100721.84;4960082;28;20034;-81
2021/08/11 01:13:52;;;;;;;11.32;8.10;;;;;;;12.29;100.00;100722.78;4960570;28;20027;-81
2021/08/11 01:16:18;;;;;;;18.90;8.23;;;;;;;12.28;100.00;100718.44;4957436;29;20158;-81
2021/08/11 01:18:43;;;;;;;12.57;7.95;;;;;;;12.23;100.00;100718.56;4958051;29;20030;-81
2021/08/11 01:21:27;;;;;;;12.35;7.85;;;;;;;12.24;100.00;100715.06;4957798;28;20031;-81
2021/08/11 01:24:05;;;;;;;14.77;8.63;;;;;;;12.24;100.00;100715.06;4959304;28;20027;-81
2021/08/11 01:26:49;;;;;;;14.75;8.50;;;;;;;12.23;100.00;100717.72;4957596;29;20027;-81
2021/08/11 01:29:19;;;;;;;14.10;8.63;;;;;;;12.17;100.00;100716.09;4958588;28;20038;-81
2021/08/11 01:31:56;;;;;;;15.02;8.50;;;;;;;12.20;100.00;100716.88;4959494;29;20027;-81
2021/08/11 01:34:36;;;;;;;15.23;8.63;;;;;;;12.17;100.00;100719.56;4961969;28;20428;-81
2021/08/11 01:37:06;;;;;;;12.55;8.57;;;;;;;12.16;100.00;100722.16;4958999;28;20392;-81
2021/08/11 01:39:35;;;;;;;15.80;8.85;;;;;;;12.13;100.00;100723.13;4958496;28;20035;-81
2021/08/11 01:42:12;;;;;;;19.35;9.00;;;;;;;12.09;100.00;100728.41;4961527;28;20130;-81
2021/08/11 01:44:55;;;;;;;15.00;8.68;;;;;;;12.07;100.00;100731.06;4959889;29;20515;-81
2021/08/11 01:47:29;;;;;;;15.18;8.90;;;;;;;12.13;100.00;100719.63;4959189;29;20030;-81
2021/08/11 01:49:55;;;;;;;14.13;8.98;;;;;;;12.14;100.00;100719.63;4960624;28;20149;-81
2021/08/11 01:52:20;;;;;;;13.95;8.52;;;;;;;12.17;100.00;100726.50;4959483;28;20027;-81
2021/08/11 01:54:46;;;;;;;16.67;9.35;;;;;;;12.19;100.00;100722.09;4959444;28;20027;-81
2021/08/11 01:57:13;;;;;;;14.48;8.68;;;;;;;12.13;100.00;100730.94;4962566;29;20033;-81
2021/08/11 01:59:40;;;;;;;14.43;8.50;;;;;;;12.16;100.00;100732.56;4963524;28;20507;-81
2021/08/11 02:02:07;;;;;;;13.48;8.75;;;;;;;12.09;100.00;100737.06;4964125;29;20027;-81
2021/08/11 02:04:35;;;;;;;15.60;8.25;;;;;;;12.15;100.00;100736.94;4964856;29;20046;-81
2021/08/11 02:07:01;;;;;;;14.95;8.57;;;;;;;12.12;100.00;100730.94;4965508;28;20027;-81
2021/08/11 02:09:27;;;;;;;16.42;8.80;;;;;;;12.09;100.00;100731.00;4964708;28;20031;-81
2021/08/11 02:11:53;;;;;;;16.67;8.95;;;;;;;12.09;100.00;100731.84;4965913;29;20043;-81
2021/08/11 02:14:19;;;;;;;14.25;8.80;;;;;;;12.11;100.00;100737.03;4967743;28;20127;-81
2021/08/11 02:16:44;;;;;;;14.98;8.95;;;;;;;12.02;100.00;100732.88;4960469;29;20062;-82
2021/08/11 02:19:11;;;;;;;14.55;8.63;;;;;;;12.05;100.00;100732.81;4960872;28;20027;-82
2021/08/11 02:21:40;;;;;;;14.23;9.02;;;;;;;12.00;100.00;100734.66;4961718;28;20073;-82
2021/08/11 02:24:07;;;;;;;14.15;9.48;;;;;;;11.93;100.00;100735.69;4960195;28;20023;-81
2021/08/11 02:26:50;;;;;;;14.20;8.88;;;;;;;11.92;100.00;100727.03;4961428;28;20055;-81
2021/08/11 02:29:23;;;;;;;17.52;10.10;;;;;;;11.90;100.00;100727.94;4961546;28;20032;-81
2021/08/11 02:32:01;;;;;;;16.20;9.77;;;;;;;11.92;100.00;100727.03;4960551;28;20023;-81
2021/08/11 02:34:54;;;;;;;17.95;10.18;;;;;;;11.91;100.00;100729.66;4962405;28;20034;-82
2021/08/11 02:37:27;;;;;;;18.25;10.05;;;;;;;11.90;100.00;100739.19;4962148;28;20488;-81
2021/08/11 02:40:10;;;;;;;18.02;9.68;;;;;;;11.91;100.00;100742.66;4961495;28;20066;-81
2021/08/11 02:42:41;;;;;;;15.88;9.60;;;;;;;11.92;100.00;100745.22;4961707;28;20440;-81
2021/08/11 02:45:11;;;;;;;14.80;10.10;;;;;;;11.86;100.00;100739.31;4962262;28;20464;-81
2021/08/11 02:47:39;;;;;;;17.02;9.85;;;;;;;11.85;100.00;100743.63;4961533;29;20031;-81
2021/08/11 02:50:07;;;;;;;16.00;10.68;;;;;;;11.87;100.00;100754.00;4961310;28;20039;-82
2021/08/11 02:52:34;;;;;;;20.85;10.15;;;;;;;11.85;100.00;100750.56;4962246;29;20031;-82
2021/08/11 02:55:01;;;;;;;19.13;10.63;;;;;;;11.86;100.00;100750.56;4962719;28;20063;-82
2021/08/11 02:57:26;;;;;;;19.00;10.15;;;;;;;11.78;100.00;100756.75;4960660;28;20131;-82
2021/08/11 02:59:52;;;;;;;18.85;11.27;;;;;;;11.85;100.00;100755.75;4962383;28;20492;-81
2021/08/11 03:02:18;;;;;;;16.05;10.25;;;;;;;11.83;100.00;100757.53;4960938;29;20023;-81
2021/08/11 03:04:43;;;;;;;16.35;10.55;;;;;;;11.77;100.00;100760.25;4960838;29;20527;-81
2021/08/11 03:07:09;;;;;;;16.33;10.73;;;;;;;11.79;100.00;100763.66;4961074;28;20027;-81
2021/08/11 03:09:35;;;;;;;17.42;10.25;;;;;;;11.77;100.00;100753.31;4963096;28;20070;-82
2021/08/11 03:12:01;;;;;;;18.77;11.65;;;;;;;11.81;100.00;100760.13;4962818;28;20359;-81
2021/08/11 03:14:27;;;;;;;18.63;11.68;;;;;;;11.78;100.00;100754.16;4960714;29;20060;-82
2021/08/11 03:16:52;;;;;;;17.73;10.93;;;;;;;11.70;100.00;100755.19;4962200;28;20027;-82
2021/08/11 03:19:17;;;;;;;20.05;11.27;;;;;;;11.67;100.00;100760.44;4961523;28;20069;-81
2021/08/11 03:21:42;;;;;;;17.63;11.15;;;;;;;11.67;100.00;100760.44;4960975;29;20034;-82
2021/08/11 03:24:08;;;;;;;18.63;10.90;;;;;;;11.66;100.00;100757.84;4960301;28;20054;-82
2021/08/11 03:26:33;;;;;;;16.90;10.93;;;;;;;11.68;100.00;100758.69;4962045;28;20053;-82
2021/08/11 03:29:02;;;;;;;21.75;12.32;;;;;;;11.64;100.00;100755.28;4961464;29;20030;-81
2021/08/11 03:31:29;;;;;;;17.88;11.00;;;;;;;11.70;100.00;100752.56;4961693;28;20480;-82
2021/08/11 03:33:55;;;;;;;17.27;10.73;;;;;;;11.74;100.00;100751.63;4961171;29;20369;-82
2021/08/11 03:36:21;;;;;;;18.13;11.05;;;;;;;11.72;100.00;100755.97;4963271;28;20050;-81
2021/08/11 03:38:46;;;;;;;19.60;11.07;;;;;;;11.71;100.00;100758.63;4961949;29;20023;-81
2021/08/11 03:41:11;;;;;;;19.25;11.68;;;;;;;11.73;100.00;100762.91;4962510;28;20034;-81
2021/08/11 03:43:36;;;;;;;18.40;11.02;;;;;;;11.67;100.00;100756.97;4961275;28;20089;-81
2021/08/11 03:46:02;;;;;;;19.63;10.40;;;;;;;11.69;100.00;100750.84;4960858;28;20034;-81
2021/08/11 03:48:27;;;;;;;22.50;10.75;;;;;;;11.69;100.00;100753.44;4944844;29;20031;-81
2021/08/11 03:50:53;;;;;;;15.60;10.68;;;;;;;11.72;100.00;100762.94;4961381;29;20019;-81
2021/08/11 03:53:18;;;;;;;16.95;10.55;;;;;;;11.64;100.00;100752.69;4965724;28;20027;-81
2021/08/11 03:55:43;;;;;;;20.40;10.70;;;;;;;11.66;100.00;100758.69;4959292;29;20023;-81
2021/08/11 03:58:09;;;;;;;18.92;10.77;;;;;;;11.60;100.00;100750.16;4961261;28;20086;-81
2021/08/11 04:00:34;;;;;;;17.63;10.07;;;;;;;11.66;100.00;100756.09;4959774;28;20023;-81
2021/08/11 04:02:59;;;;;;;18.65;10.90;;;;;;;11.71;100.00;100761.22;4961620;28;20058;-81
2021/08/11 04:05:25;;;;;;;15.32;9.30;;;;;;;11.74;100.00;100756.81;4958687;28;20038;-81
2021/08/11 04:07:50;;;;;;;19.27;10.68;;;;;;;11.68;100.00;100759.53;4959619;29;20500;-81
2021/08/11 04:10:15;;;;;;;18.20;9.90;;;;;;;11.64;100.00;100760.50;4960223;28;20027;-81
2021/08/11 04:12:41;;;;;;;19.02;11.43;;;;;;;11.65;100.00;100758.75;4959633;28;20067;-81
2021/08/11 04:15:07;;;;;;;20.75;12.00;;;;;;;11.60;100.00;100760.56;4957747;29;20051;-81
2021/08/11 04:17:32;;;;;;;20.35;11.20;;;;;;;11.62;100.00;100764.00;4959777;28;20024;-81
2021/08/11 04:19:58;;;;;;;17.40;9.60;;;;;;;11.60;100.00;100758.81;4958520;29;20054;-81
2021/08/11 04:22:23;;;;;;;17.33;11.30;;;;;;;11.74;100.00;100761.16;4960984;28;20027;-81
2021/08/11 04:24:49;;;;;;;17.50;10.60;;;;;;;11.73;100.00;100762.91;4959806;28;20106;-81
2021/08/11 04:27:14;;;;;;;19.33;10.68;;;;;;;11.73;100.00;100762.06;4959353;28;20392;-81
2021/08/11 04:29:40;;;;;;;15.85;10.07;;;;;;;11.73;100.00;100767.25;4957680;28;20484;-81
2021/08/11 04:32:05;;;;;;;16.38;10.10;;;;;;;11.74;100.00;100768.97;4960625;29;20038;-81
2021/08/11 04:34:30;;;;;;;20.05;10.75;;;;;;;11.82;100.00;100756.66;4958659;29;20109;-82
2021/08/11 04:36:56;;;;;;;17.92;9.95;;;;;;;11.87;100.00;100769.59;4956149;29;20082;-83
2021/08/11 04:39:22;;;;;;;19.85;10.32;;;;;;;11.94;100.00;100768.56;4960033;28;20028;-82
2021/08/11 04:41:47;;;;;;;16.83;9.85;;;;;;;11.94;100.00;100773.78;4970526;23;20058;-83
2021/08/11 04:44:12;;;;;;;15.77;9.52;;;;;;;12.06;100.00;100775.28;4955412;28;20063;-83
2021/08/11 04:46:40;;;;;;;15.38;10.25;;;;;;;12.05;100.00;100783.97;4954580;29;20055;-83
2021/08/11 04:49:05;;;;;;;16.45;9.02;;;;;;;12.12;100.00;100789.00;4955563;28;20535;-83
2021/08/11 04:51:30;;;;;;;17.27;9.80;;;;;;;12.14;100.00;100782.03;4955882;28;20031;-83
2021/08/11 04:53:56;;;;;;;16.02;10.07;;;;;;;12.14;100.00;100786.38;4956413;28;20050;-83
2021/08/11 04:56:21;;;;;;;17.65;10.15;;;;;;;12.29;100.00;100795.59;4968408;28;20095;-84
2021/08/11 04:58:46;;;;;;;14.88;9.25;;;;;;;12.33;100.00;100792.03;4968496;29;20051;-84
2021/08/11 05:01:12;;;;;;;14.50;8.90;;;;;;;12.41;100.00;100792.75;4967783;28;20019;-82
2021/08/11 05:03:37;;;;;;;18.25;10.70;;;;;;;12.43;100.00;100797.00;4969137;29;20062;-83
2021/08/11 05:06:04;;;;;;;16.25;8.68;;;;;;;12.53;100.00;100787.25;4970876;28;20031;-83
2021/08/11 05:08:30;;;;;;;18.83;9.52;;;;;;;12.60;100.00;100793.19;4969066;28;20054;-83
2021/08/11 05:10:55;;;;;;;18.73;8.98;;;;;;;12.64;100.00;100800.84;4968423;28;20019;-82
2021/08/11 05:13:20;;;;;;;17.13;9.20;;;;;;;12.73;100.00;100806.75;4967928;28;20031;-82
2021/08/11 05:15:45;;;;;;;16.17;8.93;;;;;;;12.80;100.00;100800.50;4965322;29;20472;-82
2021/08/11 05:18:12;;;;;;;15.80;8.70;;;;;;;12.85;100.00;100801.25;4961940;29;20051;-82
2021/08/11 05:20:37;;;;;;;14.15;8.20;;;;;;;12.88;100.00;100809.00;4961519;28;20023;-82
2021/08/11 05:23:03;;;;;;;16.00;8.68;;;;;;;12.90;100.00;100802.03;4962232;29;20023;-82
2021/08/11 05:25:29;;;;;;;16.33;8.60;;;;;;;12.99;100.00;100801.81;4962021;29;20024;-83
2021/08/11 05:27:54;;;;;;;13.63;8.88;;;;;;;13.14;100.00;100809.22;4959686;29;20488;-82
2021/08/11 05:30:19;;;;;;;16.25;9.02;;;;;;;13.56;100.00;100800.38;4964468;28;20038;-81
2021/08/11 05:32:45;;;;;;;13.15;8.25;;;;;;;13.92;100.00;100801.13;4966092;29;20045;-81
2021/08/11 05:35:10;;;;;;;12.77;7.45;;;;;;;14.23;100.00;100802.84;4965080;29;20082;-81
2021/08/11 05:37:37;;;;;;;15.35;8.10;;;;;;;14.17;100.00;100803.03;4966854;28;20051;-81
2021/08/11 05:40:02;;;;;;;16.20;7.88;;;;;;;14.64;100.00;100809.44;4964706;28;20027;-82
2021/08/11 05:42:28;;;;;;;14.77;7.78;;;;;;;15.13;100.00;100809.66;4965516;29;20480;-82
2021/08/11 05:44:53;;;;;;;12.90;6.82;;;;;;;15.40;100.00;100806.09;4965188;29;20027;-82
2021/08/11 05:47:18;;;;;;;12.48;7.28;;;;;;;15.87;100.00;100803.59;4966014;28;20027;-82
2021/08/11 05:49:44;;;;;;;12.32;7.10;;;;;;;16.33;100.00;100801.03;4963578;28;20029;-81
2021/08/11 05:52:09;;;;;;;10.80;6.35;;;;;;;16.29;100.00;100804.69;4964101;29;20043;-81
2021/08/11 05:54:35;;;;;;;15.88;7.22;;;;;;;16.66;100.00;100811.97;4963571;29;20086;-81
2021/08/11 05:57:01;;;;;;;14.35;7.18;;;;;;;16.70;100.00;100816.19;4961503;29;20510;-81
2021/08/11 05:59:26;;;;;;;11.93;6.22;;;;;;;16.83;100.00;100818.34;4963624;28;20027;-81
2021/08/11 06:01:52;;;;;;;11.90;6.53;;;;;;;17.02;100.00;100819.28;4961298;28;20055;-81
2021/08/11 06:04:19;;;;;;;12.43;6.10;;;;;;;17.23;100.00;100817.56;4963603;29;20455;-81
2021/08/11 06:06:44;;;;;;;10.45;5.88;;;;;;;17.01;100.00;100818.44;4965975;28;20046;-81
2021/08/11 06:09:10;;;;;;;12.75;5.57;;;;;;;17.40;100.00;100819.50;4963435;29;20094;-81
2021/08/11 06:11:35;;;;;;;8.10;4.65;;;;;;;17.67;100.00;100812.19;4962677;28;20027;-81
2021/08/11 06:14:00;;;;;;;12.23;5.70;;;;;;;17.64;100.00;100809.69;4963844;28;20023;-81
2021/08/11 06:16:26;;;;;;;8.85;5.18;;;;;;;18.01;100.00;100819.47;4962983;29;20027;-82
2021/08/11 06:18:54;;;;;;;10.27;4.53;;;;;;;18.07;100.00;100824.44;4961758;29;20091;-82
2021/08/11 06:21:20;;;;;;;10.23;5.03;;;;;;;18.01;100.00;100819.47;4963038;28;20023;-81
2021/08/11 06:23:45;;;;;;;8.60;4.68;;;;;;;18.30;100.00;100825.16;4963715;28;20058;-81
2021/08/11 06:26:10;;;;;;;11.68;4.53;;;;;;;18.08;100.00;100826.16;4962296;29;20034;-81
2021/08/11 06:28:36;;;;;;;12.43;4.60;;;;;;;18.35;100.00;100825.78;4963385;29;20027;-81
2021/08/11 06:31:01;;;;;;;9.70;4.25;;;;;;;18.36;100.00;100830.97;4963212;28;20400;-82
2021/08/11 06:33:26;;;;;;;11.35;4.82;;;;;;;18.64;100.00;100829.69;4966349;28;20035;-82
2021/08/11 06:35:51;;;;;;;10.43;4.28;;;;;;;18.52;100.00;100835.53;4968269;29;20114;-81
2021/08/11 06:38:17;;;;;;;9.55;4.32;;;;;;;18.05;100.00;100833.31;4965748;29;20035;-82
2021/08/11 06:40:43;;;;;;;10.63;4.18;;;;;;;18.28;100.00;100842.75;4964812;28;20031;-82
2021/08/11 06:43:08;;;;;;;9.35;3.92;;;;;;;18.97;100.00;100837.78;4964618;29;20031;-82
2021/08/11 06:45:34;;;;;;;10.15;4.07;;;;;;;19.48;100.00;100849.22;4967206;28;20058;-82
2021/08/11 06:47:59;;;;;;;10.25;4.10;;;;;;;19.35;100.00;100848.16;4962525;29;20019;-83
2021/08/11 06:50:25;;;;;;;8.98;3.80;;;;;;;19.24;100.00;100847.84;4963535;28;20050;-83
2021/08/11 06:52:50;;;;;;;12.35;4.45;;;;;;;18.47;100.00;100843.59;4964866;28;20029;-83
2021/08/11 06:55:17;;;;;;;11.77;4.22;;;;;;;18.52;100.00;100846.03;4962902;29;20055;-83
2021/08/11 06:57:46;;;;;;;10.60;3.83;;;;;;;19.00;100.00;100847.28;4964993;28;20031;-83
2021/08/11 07:00:12;;;;;;;9.32;4.07;;;;;;;18.32;100.00;100847.81;4961020;28;20046;-83
2021/08/11 07:02:37;;;;;;;9.23;4.40;;;;;;;18.58;100.00;100845.75;4961322;29;20030;-83
2021/08/11 07:05:03;;;;;;;7.95;4.20;;;;;;;18.11;100.00;100852.25;4962607;28;20033;-83
2021/08/11 07:07:30;;;;;;;12.18;4.90;;;;;;;17.71;100.00;100851.34;4958040;29;20031;-84
2021/08/11 07:09:55;;;;;;;9.73;4.63;;;;;;;17.97;100.00;100853.78;4958059;28;20441;-84
2021/08/11 07:12:21;;;;;;;10.23;4.05;;;;;;;19.07;100.00;100851.31;4959492;28;20030;-84
2021/08/11 07:14:47;;;;;;;10.02;4.43;;;;;;;19.89;100.00;100858.59;4957452;29;20024;-84
2021/08/11 07:17:13;;;;;;;9.85;4.50;;;;;;;19.85;100.00;100863.16;4960490;28;20546;-84
2021/08/11 07:19:39;;;;;;;9.20;4.60;;;;;;;19.71;100.00;100863.06;4960129;28;20106;-84
2021/08/11 07:22:05;;;;;;;8.60;3.85;;;;;;;19.45;100.00;100870.44;4958419;28;20019;-84
2021/08/11 07:24:30;;;;;;;10.15;4.60;;;;;;;19.18;100.00;100861.28;4956689;29;20400;-84
2021/08/11 07:26:55;;;;;;;9.57;4.45;;;;;;;20.34;99.73;100870.25;4956525;29;20031;-84
2021/08/11 07:29:20;;;;;;;12.60;4.93;;;;;;;21.30;94.44;100866.66;4957959;28;20436;-84
2021/08/11 07:31:46;;;;;;;11.18;3.92;;;;;;;21.40;89.65;100877.56;4957498;28;20278;-84
2021/08/11 07:34:11;;;;;;;7.47;4.22;;;;;;;21.22;88.68;100867.13;4957456;28;20103;-85
2021/08/11 07:36:37;;;;;;;8.93;3.95;;;;;;;20.43;98.79;100875.88;4956193;29;20126;-84
2021/08/11 07:39:02;;;;;;;9.88;4.15;;;;;;;20.53;96.75;100885.94;4955685;29;20054;-84
2021/08/11 07:41:27;;;;;;;14.38;4.78;;;;;;;21.75;87.86;100884.25;4955422;28;20031;-84
2021/08/11 07:43:53;;;;;;;9.70;4.63;;;;;;;20.49;93.37;100879.13;4957418;28;20078;-84
2021/08/11 07:46:18;;;;;;;12.30;4.28;;;;;;;20.61;94.83;100886.41;4957186;28;20270;-84
2021/08/11 07:48:43;;;;;;;10.25;4.38;;;;;;;20.42;96.67;100882.09;4955533;29;20027;-84
2021/08/11 07:51:09;;;;;;;11.23;4.95;;;;;;;20.98;92.93;100885.19;4955344;28;20027;-84
2021/08/11 07:53:34;;;;;;;9.10;4.18;;;;;;;21.74;89.10;100885.22;4955381;28;20043;-84
2021/08/11 07:55:59;;;;;;;8.97;4.07;;;;;;;21.44;91.54;100884.38;4956075;29;20027;-85
2021/08/11 07:58:25;;;;;;;9.90;4.10;;;;;;;21.36;87.76;100879.53;4956571;28;20778;-85
2021/08/11 08:00:51;;;;;;;10.50;4.10;;;;;;;19.87;99.37;100882.38;4957541;28;20031;-85
2021/08/11 08:03:16;;;;;;;10.77;4.43;;;;;;;19.84;100.00;100882.53;4957400;28;20158;-84
2021/08/11 08:05:42;;;;;;;8.15;3.72;;;;;;;19.48;100.00;100885.22;4955229;29;20110;-84
2021/08/11 08:08:07;;;;;;;12.05;4.07;;;;;;;20.12;97.73;100889.00;4955404;28;20395;-84
2021/08/11 08:10:33;;;;;;;10.25;3.78;;;;;;;19.99;100.00;100888.78;4954707;28;20024;-85
2021/08/11 08:12:58;;;;;;;9.95;3.70;;;;;;;19.84;100.00;100882.53;4956075;28;20031;-85
2021/08/11 08:15:23;;;;;;;7.82;3.70;;;;;;;19.13;100.00;100889.59;4954931;29;20373;-85
2021/08/11 08:17:49;;;;;;;7.65;3.30;;;;;;;20.32;98.06;100888.81;4954765;29;20027;-85
2021/08/11 08:20:16;;;;;;;8.30;3.55;;;;;;;21.11;92.46;100901.16;4955869;28;20444;-85
2021/08/11 08:22:42;;;;;;;9.60;4.75;;;;;;;22.29;80.29;100887.16;4954892;29;20019;-85
2021/08/11 08:25:07;;;;;;;6.93;3.20;;;;;;;23.20;77.20;100895.47;4957594;28;20174;-84
2021/08/11 08:27:33;;;;;;;8.82;3.17;;;;;;;23.53;77.69;100891.56;4955417;29;20042;-84
2021/08/11 08:29:58;;;;;;;9.63;4.00;;;;;;;21.59;78.52;100900.16;4957129;28;20097;-84
2021/08/11 08:32:27;;;;;;;9.48;4.15;;;;;;;20.05;88.81;100901.63;4957653;29;20118;-84
2021/08/11 08:34:53;;;;;;;11.63;4.53;;;;;;;19.98;89.78;100900.25;4959611;28;20019;-84
2021/08/11 08:37:38;;;;;;;8.90;3.60;;;;;;;19.67;93.52;100903.59;4958614;29;20058;-84
2021/08/11 08:40:06;;;;;;;10.15;3.88;;;;;;;19.66;98.74;100899.28;4955177;28;20034;-86
2021/08/11 08:42:31;;;;;;;9.00;3.38;;;;;;;19.62;99.26;100897.69;4954856;29;20035;-85
2021/08/11 08:44:57;;;;;;;10.05;3.58;;;;;;;19.49;98.85;100906.22;4954651;29;20023;-85
2021/08/11 08:47:23;;;;;;;9.25;3.63;;;;;;;21.90;82.72;100911.53;4954355;29;20026;-85
2021/08/11 08:49:50;;;;;;;10.48;3.78;;;;;;;22.89;77.82;100903.69;4954201;28;20031;-85
2021/08/11 08:52:20;;;;;;;6.97;3.08;;;;;;;22.77;76.50;100899.19;4954284;29;20038;-86
2021/08/11 08:54:46;;;;;;;11.43;4.13;;;;;;;23.20;72.35;100902.56;4954206;29;20404;-85
2021/08/11 08:57:15;;;;;;;11.30;4.30;;;;;;;23.97;66.01;100895.66;4955673;28;20024;-85
2021/08/11 08:59:45;;;;;;;7.05;3.25;;;;;;;23.90;67.64;100894.38;4956609;28;20030;-84
2021/08/11 09:02:12;;;;;;;10.57;3.72;;;;;;;23.64;63.58;100896.94;4956383;29;20023;-84
2021/08/11 09:04:39;;;;;;;10.32;3.50;;;;;;;23.99;67.51;100898.22;4953896;28;20404;-84
2021/08/11 09:07:10;;;;;;;8.60;3.50;;;;;;;23.49;68.70;100905.97;4955487;28;20047;-85
2021/08/11 09:09:37;;;;;;;7.25;3.58;;;;;;;22.05;77.22;100907.97;4954016;29;20488;-86
2021/08/11 09:12:11;;;;;;;7.18;3.22;;;;;;;24.08;67.29;100901.06;4954748;28;20034;-85
2021/08/11 09:14:37;;;;;;;8.32;3.05;;;;;;;24.20;66.81;100901.13;4955296;29;20078;-86
2021/08/11 09:17:03;;;;;;;7.45;2.83;;;;;;;24.10;66.94;100901.78;4956227;28;20035;-86
2021/08/11 09:19:45;;;;;;;7.82;3.15;;;;;;;22.82;73.07;100912.97;4955143;29;20030;-85
2021/08/11 09:22:15;;;;;;;7.88;3.55;;;;;;;20.98;78.68;100908.94;4956293;28;20074;-84
2021/08/11 09:24:42;;;;;;;7.97;2.95;;;;;;;20.29;84.49;100910.03;4955266;28;20480;-84
2021/08/11 09:27:21;;;;;;;8.95;3.13;;;;;;;19.67;92.16;100922.00;4955100;28;20070;-85
2021/08/11 09:30:10;;;;;;;8.65;3.05;;;;;;;19.37;92.17;100911.22;4953715;28;20550;-84
2021/08/11 09:32:55;;;;;;;7.05;3.50;;;;;;;19.36;91.43;100926.13;4955117;28;20059;-84
2021/08/11 09:35:25;;;;;;;9.77;2.90;;;;;;;19.12;95.39;100922.06;4953745;29;20392;-84
2021/08/11 09:37:51;;;;;;;7.72;2.70;;;;;;;20.67;87.00;100918.53;4955226;28;20166;-84
2021/08/11 09:40:19;;;;;;;6.07;2.70;;;;;;;22.92;73.76;100917.56;4953631;28;20082;-84
2021/08/11 09:42:45;;;;;;;5.93;2.20;;;;;;;23.97;68.85;100926.59;4954873;28;20027;-84
2021/08/11 09:45:12;;;;;;;6.32;2.65;;;;;;;24.50;62.44;100914.91;4953604;29;20030;-84
2021/08/11 09:47:38;;;;;;;6.90;2.92;;;;;;;25.05;62.76;100915.41;4953731;29;20068;-84
2021/08/11 09:50:05;;;;;;;5.75;2.30;;;;;;;24.50;62.83;100919.38;4953568;28;20023;-84
2021/08/11 09:52:52;;;;;;;8.77;3.47;;;;;;;23.69;68.90;100917.00;4954748;28;20527;-85
2021/08/11 09:55:19;;;;;;;7.13;3.17;;;;;;;25.35;61.54;100922.94;4953633;29;20031;-85
2021/08/11 09:57:45;;;;;;;7.35;2.20;;;;;;;26.03;55.33;100920.50;4954777;28;20412;-84
2021/08/11 10:00:14;;;;;;;8.38;3.50;;;;;;;23.96;63.56;100920.47;4954028;28;20486;-83
2021/08/11 10:02:44;;;;;;;7.82;2.97;;;;;;;22.18;72.43;100918.69;4953703;29;20038;-84
2021/08/11 10:05:32;;;;;;;6.47;2.55;;;;;;;21.32;74.30;100926.31;4953381;29;20019;-84
2021/08/11 10:07:57;;;;;;;5.55;2.03;;;;;;;20.90;78.16;100912.00;4953559;29;20050;-84
2021/08/11 10:10:22;;;;;;;7.88;2.97;;;;;;;20.66;81.38;100924.75;4954701;28;20476;-85
2021/08/11 10:12:49;;;;;;;13.10;4.97;;;;;;;20.43;85.79;100919.81;4953552;29;20027;-84
2021/08/11 10:15:15;;;;;;;5.55;2.20;;;;;;;20.12;84.49;100929.34;4953974;29;20029;-85
2021/08/11 10:17:42;;;;;;;5.68;2.10;;;;;;;19.83;86.64;100922.09;4956807;28;20034;-84
2021/08/11 10:20:08;;;;;;;4.72;2.00;;;;;;;19.76;87.48;100929.44;4956763;28;20062;-85
2021/08/11 10:22:37;;;;;;;5.72;1.90;;;;;;;22.25;74.77;100922.63;4958001;28;20031;-85
2021/08/11 10:25:03;;;;;;;6.30;2.00;;;;;;;24.14;64.91;100921.00;4956643;28;20038;-85
2021/08/11 10:27:28;;;;;;;5.15;2.20;;;;;;;24.44;63.34;100922.47;4956621;29;20031;-84
2021/08/11 10:29:55;;;;;;;6.72;2.20;;;;;;;24.70;63.02;100915.31;4957743;28;20023;-85
2021/08/11 10:32:22;;;;;;;6.70;2.00;;;;;;;24.54;67.49;100910.28;4957787;28;20027;-84
2021/08/11 10:34:47;;;;;;;8.85;2.25;;;;;;;24.88;61.98;100910.47;4956644;29;20027;-84
2021/08/11 10:37:14;;;;;;;5.88;1.75;;;;;;;25.69;57.46;100918.59;4956781;29;20392;-84
2021/08/11 10:39:40;;;;;;;6.32;2.22;;;;;;;24.21;63.97;100916.09;4956937;29;20034;-84
2021/08/11 10:42:16;;;;;;;6.03;1.70;;;;;;;24.65;60.15;100914.78;4984694;22;20053;-81
2021/08/11 10:44:44;;;;;;;5.38;1.83;;;;;;;24.65;58.93;100925.41;4960733;28;20091;-82
2021/08/11 10:47:11;;;;;;;9.32;1.95;;;;;;;25.86;53.79;100920.00;4959033;29;20403;-82
2021/08/11 10:49:57;;;;;;;7.60;2.20;;;;;;;24.67;55.84;100920.84;4961009;28;20489;-81
2021/08/11 10:52:23;;;;;;;4.35;1.83;;;;;;;23.94;58.76;100921.50;4960485;28;20117;-82
2021/08/11 10:54:51;;;;;;;6.38;1.90;;;;;;;23.49;60.13;100919.19;4960551;29;20023;-82
2021/08/11 10:57:43;;;;;;;5.13;2.20;;;;;;;22.94;64.70;100917.50;4961581;28;20031;-82
2021/08/11 11:00:10;;;;;;;4.85;1.40;;;;;;;22.63;66.57;100926.50;4960259;28;20497;-82
2021/08/11 11:02:42;;;;;;;8.05;2.22;;;;;;;21.73;69.37;100925.75;4958028;29;20047;-82
2021/08/11 11:05:28;;;;;;;4.70;1.95;;;;;;;21.26;71.51;100934.59;4957783;28;20027;-83
2021/08/11 11:08:15;;;;;;;5.13;1.90;;;;;;;22.06;70.03;100922.88;4956523;29;20024;-82
2021/08/11 11:10:45;;;;;;;4.45;1.83;;;;;;;22.29;70.26;100918.00;4959494;28;20050;-82
2021/08/11 11:13:23;;;;;;;5.63;2.00;;;;;;;24.72;59.91;100918.69;4960763;28;20031;-82